TAM81 SBGR-SBRJ
Flight info
| Callsign | TAM81 |
|---|---|
| Flight time | 0h 41m |
| Altitude | 25000 |
| Route | EKOPO1A NIBRU UZ171 KEVUN ASALU1A |
| Aircraft | B77W/H-SDE1E2E3FGHIJ2J3J4J5M1RWXY/LB1D1 |
Departure
| Time | 2026-05-04 14:46 |
|---|---|
| Airport | São Paulo/Guarulhos–Governor André Franco Montoro International Airport (SBGR) |
Arrival
| Time | 2026-05-04 15:28 |
|---|---|
| Airport | Santos Dumont Airport (SBRJ) |
| Time | Latitude | Longitude | Altitude | Speed | Heading |
|---|---|---|---|---|---|
| 2026-05-04 14:00 | -23.42986 | -46.48267 | 2460 ft | 0 kts | 347° |
| 2026-05-04 14:06 | -23.42922 | -46.47991 | 2460 ft | 0 kts | 25° |
| 2026-05-04 14:06 | -23.42924 | -46.47987 | 2460 ft | 0 kts | 25° |
| 2026-05-04 14:20 | -23.42936 | -46.47993 | 2459 ft | 3 kts | 26° |
| 2026-05-04 14:20 | -23.42953 | -46.48002 | 2461 ft | 3 kts | 26° |
| 2026-05-04 14:20 | -23.42970 | -46.48011 | 2467 ft | 3 kts | 25° |
| 2026-05-04 14:21 | -23.42997 | -46.48025 | 2467 ft | 0 kts | 26° |
| 2026-05-04 14:22 | -23.42996 | -46.48025 | 2467 ft | 1 kts | 26° |
| 2026-05-04 14:22 | -23.42988 | -46.48019 | 2466 ft | 3 kts | 24° |
| 2026-05-04 14:22 | -23.42990 | -46.48042 | 2460 ft | 3 kts | 227° |
| 2026-05-04 14:22 | -23.43027 | -46.48110 | 2464 ft | 18 kts | 247° |
| 2026-05-04 14:23 | -23.43064 | -46.48388 | 2460 ft | 11 kts | 264° |
| 2026-05-04 14:23 | -23.43030 | -46.48436 | 2465 ft | 8 kts | 333° |
| 2026-05-04 14:23 | -23.43005 | -46.48475 | 2466 ft | 6 kts | 285° |
| 2026-05-04 14:24 | -23.42998 | -46.48512 | 2466 ft | 4 kts | 278° |
| 2026-05-04 14:24 | -23.42994 | -46.48545 | 2468 ft | 4 kts | 277° |
| 2026-05-04 14:24 | -23.42992 | -46.48573 | 2464 ft | 3 kts | 275° |
| 2026-05-04 14:24 | -23.42990 | -46.48591 | 2463 ft | 2 kts | 277° |
| 2026-05-04 14:25 | -23.42988 | -46.48605 | 2462 ft | 3 kts | 278° |
| 2026-05-04 14:25 | -23.42986 | -46.48735 | 2467 ft | 10 kts | 248° |
| 2026-05-04 14:25 | -23.43020 | -46.48763 | 2466 ft | 5 kts | 204° |
| 2026-05-04 14:26 | -23.43053 | -46.48772 | 2465 ft | 5 kts | 187° |
| 2026-05-04 14:26 | -23.43082 | -46.48776 | 2468 ft | 4 kts | 187° |
| 2026-05-04 14:26 | -23.43109 | -46.48779 | 2467 ft | 4 kts | 187° |
| 2026-05-04 14:26 | -23.43135 | -46.48782 | 2464 ft | 4 kts | 183° |
| 2026-05-04 14:27 | -23.43159 | -46.48772 | 2469 ft | 4 kts | 136° |
| 2026-05-04 14:27 | -23.43172 | -46.48739 | 2468 ft | 7 kts | 107° |
| 2026-05-04 14:27 | -23.43175 | -46.48663 | 2465 ft | 12 kts | 92° |
| 2026-05-04 14:27 | -23.43180 | -46.48588 | 2462 ft | 9 kts | 95° |
| 2026-05-04 14:28 | -23.43186 | -46.48526 | 2464 ft | 8 kts | 95° |
| 2026-05-04 14:28 | -23.43190 | -46.48469 | 2460 ft | 7 kts | 95° |
| 2026-05-04 14:28 | -23.43204 | -46.48415 | 2466 ft | 8 kts | 124° |
| 2026-05-04 14:28 | -23.43249 | -46.48385 | 2464 ft | 8 kts | 159° |
| 2026-05-04 14:29 | -23.43355 | -46.48346 | 2463 ft | 9 kts | 163° |
| 2026-05-04 14:29 | -23.43453 | -46.48314 | 2464 ft | 7 kts | 163° |
| 2026-05-04 14:30 | -23.43500 | -46.48299 | 2463 ft | 7 kts | 163° |
| 2026-05-04 14:30 | -23.43547 | -46.48289 | 2465 ft | 7 kts | 179° |
| 2026-05-04 14:30 | -23.43608 | -46.48352 | 2468 ft | 5 kts | 247° |
| 2026-05-04 14:31 | -23.43613 | -46.48368 | 2468 ft | 2 kts | 251° |
| 2026-05-04 14:31 | -23.43621 | -46.48395 | 2463 ft | 2 kts | 251° |
| 2026-05-04 14:32 | -23.43633 | -46.48434 | 2463 ft | 3 kts | 252° |
| 2026-05-04 14:32 | -23.43640 | -46.48459 | 2464 ft | 3 kts | 253° |
| 2026-05-04 14:32 | -23.43647 | -46.48484 | 2467 ft | 3 kts | 254° |
| 2026-05-04 14:32 | -23.43652 | -46.48504 | 2466 ft | 2 kts | 254° |
| 2026-05-04 14:33 | -23.43653 | -46.48510 | 2466 ft | 0 kts | 254° |
| 2026-05-04 14:33 | -23.43655 | -46.48515 | 2466 ft | 3 kts | 254° |
| 2026-05-04 14:33 | -23.43661 | -46.48537 | 2468 ft | 3 kts | 254° |
| 2026-05-04 14:34 | -23.43665 | -46.48555 | 2468 ft | 1 kts | 253° |
| 2026-05-04 14:34 | -23.43666 | -46.48558 | 2466 ft | 0 kts | 253° |
| 2026-05-04 14:34 | -23.43670 | -46.48572 | 2467 ft | 2 kts | 253° |
| 2026-05-04 14:34 | -23.43676 | -46.48584 | 2468 ft | 2 kts | 239° |
| 2026-05-04 14:35 | -23.43680 | -46.48589 | 2467 ft | 1 kts | 229° |
| 2026-05-04 14:35 | -23.43682 | -46.48591 | 2466 ft | 1 kts | 226° |
| 2026-05-04 14:35 | -23.43701 | -46.48606 | 2470 ft | 3 kts | 216° |
| 2026-05-04 14:35 | -23.43718 | -46.48616 | 2470 ft | 3 kts | 205° |
| 2026-05-04 14:36 | -23.43719 | -46.48617 | 2470 ft | 0 kts | 204° |
| 2026-05-04 14:40 | -23.43730 | -46.48621 | 2471 ft | 1 kts | 198° |
| 2026-05-04 14:40 | -23.43738 | -46.48622 | 2470 ft | 2 kts | 192° |
| 2026-05-04 14:40 | -23.43754 | -46.48623 | 2465 ft | 3 kts | 179° |
| 2026-05-04 14:40 | -23.43787 | -46.48616 | 2467 ft | 6 kts | 163° |
| 2026-05-04 14:41 | -23.43826 | -46.48599 | 2470 ft | 5 kts | 146° |
| 2026-05-04 14:41 | -23.43843 | -46.48570 | 2470 ft | 5 kts | 109° |
| 2026-05-04 14:41 | -23.43841 | -46.48546 | 2469 ft | 0 kts | 73° |
| 2026-05-04 14:43 | -23.43840 | -46.48545 | 2469 ft | 0 kts | 72° |
| 2026-05-04 14:44 | -23.43840 | -46.48543 | 2469 ft | 0 kts | 72° |
| 2026-05-04 14:45 | -23.43834 | -46.48522 | 2467 ft | 18 kts | 72° |
| 2026-05-04 14:45 | -23.43804 | -46.48422 | 2467 ft | 46 kts | 72° |
| 2026-05-04 14:46 | -23.43634 | -46.47793 | 2466 ft | 142 kts | 73° |
| 2026-05-04 14:46 | -23.43256 | -46.46400 | 2807 ft | 222 kts | 77° |
| 2026-05-04 14:46 | -23.43320 | -46.44684 | 4334 ft | 232 kts | 96° |
| 2026-05-04 14:46 | -23.43522 | -46.42769 | 5613 ft | 280 kts | 94° |
| 2026-05-04 14:47 | -23.43742 | -46.40501 | 6775 ft | 318 kts | 94° |
| 2026-05-04 14:47 | -23.43957 | -46.38142 | 7829 ft | 307 kts | 96° |
| 2026-05-04 14:47 | -23.44221 | -46.35977 | 8670 ft | 289 kts | 97° |
| 2026-05-04 14:47 | -23.44528 | -46.33834 | 9719 ft | 275 kts | 102° |
| 2026-05-04 14:48 | -23.45232 | -46.31917 | 9718 ft | 270 kts | 124° |
| 2026-05-04 14:48 | -23.46312 | -46.30324 | 9759 ft | 253 kts | 130° |
| 2026-05-04 14:48 | -23.47411 | -46.28846 | 9983 ft | 255 kts | 131° |
| 2026-05-04 14:48 | -23.48530 | -46.27349 | 10230 ft | 252 kts | 131° |
| 2026-05-04 14:49 | -23.49622 | -46.25882 | 10473 ft | 247 kts | 131° |
| 2026-05-04 14:49 | -23.50698 | -46.24437 | 10755 ft | 244 kts | 131° |
| 2026-05-04 14:49 | -23.51800 | -46.22965 | 11030 ft | 259 kts | 134° |
| 2026-05-04 14:49 | -23.53253 | -46.21782 | 11360 ft | 261 kts | 160° |
| 2026-05-04 14:50 | -23.54965 | -46.21125 | 11692 ft | 262 kts | 167° |
| 2026-05-04 14:50 | -23.56740 | -46.20574 | 12000 ft | 267 kts | 168° |
| 2026-05-04 14:50 | -23.58527 | -46.20029 | 12283 ft | 266 kts | 165° |
| 2026-05-04 14:50 | -23.60134 | -46.19012 | 12515 ft | 273 kts | 137° |
| 2026-05-04 14:51 | -23.61236 | -46.17316 | 12846 ft | 276 kts | 121° |
| 2026-05-04 14:51 | -23.62120 | -46.15441 | 13161 ft | 281 kts | 118° |
| 2026-05-04 14:51 | -23.62864 | -46.13459 | 13424 ft | 287 kts | 101° |
| 2026-05-04 14:51 | -23.62682 | -46.11296 | 13735 ft | 293 kts | 66° |
| 2026-05-04 14:52 | -23.61564 | -46.09444 | 14112 ft | 298 kts | 48° |
| 2026-05-04 14:52 | -23.60116 | -46.07693 | 14441 ft | 318 kts | 46° |
| 2026-05-04 14:52 | -23.58591 | -46.05874 | 14772 ft | 339 kts | 47° |
| 2026-05-04 14:52 | -23.57012 | -46.03899 | 15086 ft | 352 kts | 49° |
| 2026-05-04 14:53 | -23.55934 | -46.02490 | 15334 ft | 378 kts | 50° |
| 2026-05-04 14:53 | -23.54204 | -46.00155 | 15686 ft | 415 kts | 50° |
| 2026-05-04 14:53 | -23.52382 | -45.97643 | 16014 ft | 425 kts | 51° |
| 2026-05-04 14:53 | -23.50705 | -45.94970 | 16287 ft | 438 kts | 64° |
| 2026-05-04 14:54 | -23.49732 | -45.90676 | 16696 ft | 446 kts | 89° |
| 2026-05-04 14:54 | -23.49900 | -45.88401 | 16887 ft | 445 kts | 102° |
| 2026-05-04 14:54 | -23.50541 | -45.85066 | 17224 ft | 455 kts | 103° |
| 2026-05-04 14:54 | -23.51188 | -45.81687 | 17513 ft | 456 kts | 103° |
| 2026-05-04 14:55 | -23.51816 | -45.78293 | 17813 ft | 458 kts | 103° |
| 2026-05-04 14:55 | -23.52433 | -45.74877 | 18122 ft | 460 kts | 102° |
| 2026-05-04 14:55 | -23.53040 | -45.71451 | 18423 ft | 462 kts | 102° |
| 2026-05-04 14:55 | -23.53644 | -45.68003 | 18697 ft | 464 kts | 102° |
| 2026-05-04 14:56 | -23.54247 | -45.64532 | 18966 ft | 467 kts | 102° |
| 2026-05-04 14:56 | -23.54849 | -45.61053 | 19244 ft | 469 kts | 102° |
| 2026-05-04 14:56 | -23.55457 | -45.57552 | 19537 ft | 471 kts | 102° |
| 2026-05-04 14:56 | -23.56067 | -45.54032 | 19820 ft | 473 kts | 102° |
| 2026-05-04 14:57 | -23.56677 | -45.50506 | 20097 ft | 475 kts | 102° |
| 2026-05-04 14:57 | -23.57151 | -45.46953 | 20355 ft | 476 kts | 94° |
| 2026-05-04 14:57 | -23.56811 | -45.43362 | 20618 ft | 477 kts | 77° |
| 2026-05-04 14:57 | -23.56002 | -45.39837 | 20952 ft | 482 kts | 76° |
| 2026-05-04 14:58 | -23.55164 | -45.36281 | 21259 ft | 487 kts | 76° |
| 2026-05-04 14:58 | -23.54345 | -45.32727 | 21539 ft | 491 kts | 76° |
| 2026-05-04 14:58 | -23.53537 | -45.29097 | 21861 ft | 494 kts | 77° |
| 2026-05-04 14:58 | -23.52745 | -45.25443 | 22156 ft | 497 kts | 77° |
| 2026-05-04 14:59 | -23.51963 | -45.21772 | 22479 ft | 499 kts | 77° |
| 2026-05-04 14:59 | -23.51181 | -45.18077 | 22782 ft | 501 kts | 78° |
| 2026-05-04 14:59 | -23.49606 | -45.10652 | 23166 ft | 505 kts | 77° |
| 2026-05-04 15:00 | -23.48812 | -45.06933 | 23195 ft | 504 kts | 77° |
| 2026-05-04 15:00 | -23.48018 | -45.03218 | 23192 ft | 503 kts | 77° |
| 2026-05-04 15:00 | -23.47223 | -44.99507 | 23194 ft | 503 kts | 77° |
| 2026-05-04 15:01 | -23.45464 | -44.92138 | 23193 ft | 503 kts | 71° |
| 2026-05-04 15:01 | -23.44248 | -44.88577 | 23198 ft | 503 kts | 69° |
| 2026-05-04 15:01 | -23.42965 | -44.85032 | 23194 ft | 501 kts | 68° |
| 2026-05-04 15:01 | -23.41701 | -44.81576 | 23187 ft | 483 kts | 68° |
| 2026-05-04 15:02 | -23.40492 | -44.78234 | 23170 ft | 467 kts | 68° |
| 2026-05-04 15:02 | -23.39323 | -44.74947 | 22911 ft | 466 kts | 69° |
| 2026-05-04 15:02 | -23.38169 | -44.71656 | 22500 ft | 463 kts | 69° |
| 2026-05-04 15:02 | -23.37037 | -44.68401 | 22060 ft | 458 kts | 69° |
| 2026-05-04 15:03 | -23.35937 | -44.65221 | 21582 ft | 440 kts | 69° |
| 2026-05-04 15:03 | -23.34882 | -44.62169 | 21108 ft | 422 kts | 69° |
| 2026-05-04 15:03 | -23.33867 | -44.59232 | 20662 ft | 407 kts | 69° |
| 2026-05-04 15:03 | -23.32887 | -44.56401 | 20207 ft | 393 kts | 68° |
| 2026-05-04 15:04 | -23.31936 | -44.53661 | 19763 ft | 381 kts | 68° |
| 2026-05-04 15:04 | -23.31013 | -44.51001 | 19335 ft | 370 kts | 68° |
| 2026-05-04 15:04 | -23.30114 | -44.48416 | 18899 ft | 362 kts | 68° |
| 2026-05-04 15:04 | -23.29225 | -44.45863 | 18508 ft | 362 kts | 68° |
| 2026-05-04 15:05 | -23.28325 | -44.43280 | 18088 ft | 367 kts | 68° |
| 2026-05-04 15:05 | -23.27418 | -44.40681 | 17630 ft | 369 kts | 68° |
| 2026-05-04 15:05 | -23.26507 | -44.38071 | 17189 ft | 369 kts | 68° |
| 2026-05-04 15:05 | -23.25598 | -44.35465 | 16755 ft | 368 kts | 68° |
| 2026-05-04 15:06 | -23.24691 | -44.32866 | 16327 ft | 368 kts | 68° |
| 2026-05-04 15:06 | -23.23797 | -44.30305 | 15902 ft | 354 kts | 68° |
| 2026-05-04 15:06 | -23.22948 | -44.27872 | 15484 ft | 335 kts | 68° |
| 2026-05-04 15:07 | -23.21375 | -44.23370 | 14684 ft | 304 kts | 68° |
| 2026-05-04 15:07 | -23.20639 | -44.21267 | 14296 ft | 291 kts | 69° |
| 2026-05-04 15:07 | -23.19927 | -44.19234 | 13937 ft | 286 kts | 68° |
| 2026-05-04 15:07 | -23.19223 | -44.17220 | 13510 ft | 285 kts | 68° |
| 2026-05-04 15:08 | -23.18520 | -44.15216 | 13111 ft | 283 kts | 68° |
| 2026-05-04 15:08 | -23.17823 | -44.13231 | 12698 ft | 277 kts | 68° |
| 2026-05-04 15:08 | -23.17151 | -44.11317 | 12331 ft | 264 kts | 68° |
| 2026-05-04 15:08 | -23.16512 | -44.09496 | 11978 ft | 254 kts | 68° |
| 2026-05-04 15:09 | -23.15888 | -44.07715 | 11578 ft | 249 kts | 68° |
| 2026-05-04 15:09 | -23.15281 | -44.05988 | 11173 ft | 240 kts | 68° |
| 2026-05-04 15:09 | -23.14698 | -44.04327 | 10767 ft | 232 kts | 68° |
| 2026-05-04 15:10 | -23.13583 | -44.01154 | 9975 ft | 220 kts | 67° |
| 2026-05-04 15:10 | -23.13049 | -43.99636 | 9669 ft | 209 kts | 67° |
| 2026-05-04 15:10 | -23.11975 | -43.96591 | 9105 ft | 220 kts | 67° |
| 2026-05-04 15:11 | -23.11430 | -43.95043 | 8867 ft | 219 kts | 67° |
| 2026-05-04 15:11 | -23.10890 | -43.93508 | 8660 ft | 216 kts | 67° |
| 2026-05-04 15:11 | -23.10358 | -43.91998 | 8513 ft | 211 kts | 67° |
| 2026-05-04 15:11 | -23.09841 | -43.90530 | 8365 ft | 207 kts | 67° |
| 2026-05-04 15:12 | -23.09328 | -43.89082 | 8189 ft | 204 kts | 66° |
| 2026-05-04 15:12 | -23.08816 | -43.87636 | 8017 ft | 206 kts | 67° |
| 2026-05-04 15:12 | -23.08304 | -43.86180 | 7865 ft | 208 kts | 67° |
| 2026-05-04 15:12 | -23.07784 | -43.84703 | 7700 ft | 209 kts | 67° |
| 2026-05-04 15:13 | -23.07264 | -43.83228 | 7542 ft | 208 kts | 67° |
| 2026-05-04 15:13 | -23.06746 | -43.81762 | 7370 ft | 208 kts | 68° |
| 2026-05-04 15:13 | -23.06230 | -43.80294 | 7252 ft | 209 kts | 66° |
| 2026-05-04 15:13 | -23.05706 | -43.78820 | 7044 ft | 209 kts | 67° |
| 2026-05-04 15:14 | -23.05188 | -43.77354 | 6885 ft | 207 kts | 66° |
| 2026-05-04 15:14 | -23.04675 | -43.75904 | 6685 ft | 205 kts | 67° |
| 2026-05-04 15:14 | -23.04167 | -43.74466 | 6528 ft | 203 kts | 66° |
| 2026-05-04 15:14 | -23.03666 | -43.73050 | 6449 ft | 199 kts | 66° |
| 2026-05-04 15:15 | -23.03171 | -43.71650 | 6385 ft | 199 kts | 66° |
| 2026-05-04 15:15 | -23.02669 | -43.70234 | 6398 ft | 202 kts | 66° |
| 2026-05-04 15:15 | -23.02167 | -43.68815 | 6373 ft | 202 kts | 66° |
| 2026-05-04 15:16 | -23.01184 | -43.66042 | 6366 ft | 193 kts | 66° |
| 2026-05-04 15:16 | -23.00703 | -43.64684 | 6372 ft | 193 kts | 66° |
| 2026-05-04 15:16 | -22.99695 | -43.61933 | 6368 ft | 197 kts | 63° |
| 2026-05-04 15:17 | -22.99111 | -43.60605 | 6348 ft | 193 kts | 62° |
| 2026-05-04 15:17 | -22.97952 | -43.58002 | 5999 ft | 194 kts | 61° |
| 2026-05-04 15:17 | -22.97365 | -43.56676 | 5797 ft | 196 kts | 61° |
| 2026-05-04 15:18 | -22.96781 | -43.55345 | 5570 ft | 195 kts | 61° |
| 2026-05-04 15:18 | -22.96200 | -43.54038 | 5381 ft | 190 kts | 62° |
| 2026-05-04 15:18 | -22.95633 | -43.52748 | 5206 ft | 187 kts | 61° |
| 2026-05-04 15:19 | -22.94658 | -43.50359 | 4758 ft | 165 kts | 70° |
| 2026-05-04 15:19 | -22.94356 | -43.49187 | 4579 ft | 158 kts | 70° |
| 2026-05-04 15:19 | -22.93770 | -43.46835 | 4401 ft | 163 kts | 71° |
| 2026-05-04 15:20 | -22.93472 | -43.45641 | 4369 ft | 166 kts | 71° |
| 2026-05-04 15:20 | -22.93167 | -43.44440 | 4266 ft | 162 kts | 71° |
| 2026-05-04 15:20 | -22.92872 | -43.43278 | 4202 ft | 160 kts | 72° |
| 2026-05-04 15:20 | -22.92596 | -43.42103 | 4110 ft | 161 kts | 71° |
| 2026-05-04 15:21 | -22.92304 | -43.40962 | 3931 ft | 153 kts | 71° |
| 2026-05-04 15:21 | -22.92020 | -43.39865 | 3889 ft | 152 kts | 71° |
| 2026-05-04 15:21 | -22.91444 | -43.37635 | 3524 ft | 150 kts | 71° |
| 2026-05-04 15:22 | -22.91163 | -43.36562 | 3363 ft | 147 kts | 74° |
| 2026-05-04 15:22 | -22.90894 | -43.35515 | 3189 ft | 143 kts | 72° |
| 2026-05-04 15:22 | -22.90329 | -43.33411 | 3004 ft | 147 kts | 74° |
| 2026-05-04 15:23 | -22.90036 | -43.32339 | 3031 ft | 148 kts | 73° |
| 2026-05-04 15:23 | -22.89774 | -43.31271 | 2770 ft | 143 kts | 74° |
| 2026-05-04 15:23 | -22.89521 | -43.30235 | 2723 ft | 141 kts | 73° |
| 2026-05-04 15:23 | -22.89270 | -43.29230 | 2701 ft | 136 kts | 74° |
| 2026-05-04 15:24 | -22.88745 | -43.27165 | 2662 ft | 146 kts | 73° |
| 2026-05-04 15:24 | -22.88961 | -43.25104 | 2371 ft | 147 kts | 121° |
| 2026-05-04 15:25 | -22.89437 | -43.24114 | 2116 ft | 146 kts | 112° |
| 2026-05-04 15:25 | -22.89922 | -43.23164 | 1908 ft | 141 kts | 124° |
| 2026-05-04 15:25 | -22.90548 | -43.22353 | 1654 ft | 140 kts | 128° |
| 2026-05-04 15:26 | -22.91743 | -43.20625 | 1408 ft | 147 kts | 122° |
| 2026-05-04 15:26 | -22.92377 | -43.19717 | 1113 ft | 152 kts | 129° |
| 2026-05-04 15:26 | -22.93765 | -43.18152 | 799 ft | 147 kts | 122° |
| 2026-05-04 15:27 | -22.94040 | -43.17130 | 762 ft | 142 kts | 87° |
| 2026-05-04 15:27 | -22.92613 | -43.16216 | 219 ft | 140 kts | 1° |
| 2026-05-04 15:28 | -22.90931 | -43.16291 | 26 ft | 58 kts | 356° |
| 2026-05-04 15:28 | -22.90806 | -43.16356 | 30 ft | 22 kts | 268° |
| 2026-05-04 15:28 | -22.90922 | -43.16550 | 25 ft | 20 kts | 173° |
| 2026-05-04 15:29 | -22.91013 | -43.16542 | 40 ft | 10 kts | 176° |
| 2026-05-04 15:30 | -22.91282 | -43.16563 | 23 ft | 0 kts | 271° |
| 2026-05-04 15:30 | -22.91282 | -43.16564 | 23 ft | 0 kts | 271° |